Time;durP1;ratioP1;P1;durP2;ratioP2;P2;SDS_P1;SDS_P2;PMS_P1;PMS_P2;Temp;Humidity;BMP_temperature;BMP_pressure;BME280_temperature;BME280_humidity;BME280_pressure;Samples;Min_cycle;Max_cycle;Signal;HPM_P1;HPM_P2
2022/09/18 00:01:50;;;;;;;78.47;28.80;;;12.30;99.90;;;;;;5046308;28;20173;-84
2022/09/18 00:04:15;;;;;;;75.47;27.40;;;12.30;99.90;;;;;;5045032;28;20172;-84
2022/09/18 00:06:42;;;;;;;77.00;23.73;;;12.30;99.90;;;;;;5044142;28;20175;-84
2022/09/18 00:09:11;;;;;;;74.18;18.40;;;12.30;99.90;;;;;;5062775;28;20243;-84
2022/09/18 00:11:41;;;;;;;74.00;22.27;;;12.30;99.90;;;;;;5045197;28;20199;-82
2022/09/18 00:14:11;;;;;;;76.18;23.73;;;12.40;99.90;;;;;;5062002;28;20160;-84
2022/09/18 00:16:37;;;;;;;74.47;23.80;;;12.40;99.90;;;;;;5061509;28;20212;-84
2022/09/18 00:19:04;;;;;;;71.78;22.20;;;12.30;99.90;;;;;;5060654;28;20187;-84
2022/09/18 00:21:31;;;;;;;73.47;25.17;;;12.30;99.90;;;;;;5061630;28;20164;-83
2022/09/18 00:23:59;;;;;;;82.35;26.20;;;12.30;99.90;;;;;;5061963;28;20700;-84
2022/09/18 00:26:25;;;;;;;74.38;24.33;;;12.30;99.90;;;;;;5061119;28;20164;-83
2022/09/18 00:28:52;;;;;;;80.85;38.80;;;12.30;99.90;;;;;;5060942;28;20180;-83
2022/09/18 00:31:20;;;;;;;76.50;24.58;;;12.30;99.90;;;;;;5061942;28;20251;-83
2022/09/18 00:33:46;;;;;;;75.03;29.75;;;12.30;99.90;;;;;;5060825;28;20221;-83
2022/09/18 00:36:14;;;;;;;79.23;34.17;;;12.20;99.90;;;;;;5061562;28;20180;-84
2022/09/18 00:38:40;;;;;;;77.30;34.87;;;12.20;99.90;;;;;;5061404;28;20419;-84
2022/09/18 00:41:28;;;;;;;78.23;25.40;;;12.20;99.90;;;;;;5060995;28;20434;-84
2022/09/18 00:44:14;;;;;;;77.55;32.40;;;12.20;99.90;;;;;;5060931;28;20462;-83
2022/09/18 00:46:43;;;;;;;89.43;47.55;;;12.20;99.90;;;;;;5042700;28;20164;-84
2022/09/18 00:49:19;;;;;;;77.77;36.20;;;12.20;99.90;;;;;;5061108;28;20156;-85
2022/09/18 00:51:48;;;;;;;81.78;36.33;;;12.20;99.90;;;;;;5060413;28;20525;-84
2022/09/18 00:54:26;;;;;;;75.10;26.65;;;12.20;99.90;;;;;;5041858;28;20171;-82
2022/09/18 00:56:57;;;;;;;75.43;24.67;;;12.20;99.90;;;;;;5059962;28;20149;-83
2022/09/18 00:59:27;;;;;;;73.45;24.15;;;12.20;99.90;;;;;;5060472;28;20386;-84
2022/09/18 01:01:54;;;;;;;74.22;29.42;;;12.30;99.90;;;;;;5060692;28;20161;-83
2022/09/18 01:04:20;;;;;;;77.00;24.80;;;12.30;99.90;;;;;;5060242;28;20168;-83
2022/09/18 01:07:08;;;;;;;73.90;29.20;;;12.30;99.90;;;;;;5059993;28;20169;-83
2022/09/18 01:09:58;;;;;;;74.97;26.90;;;12.20;99.90;;;;;;5060069;28;20446;-84
2022/09/18 01:12:33;;;;;;;75.10;23.38;;;12.20;99.90;;;;;;5060734;28;20457;-83
2022/09/18 01:15:01;;;;;;;72.72;25.05;;;12.20;99.90;;;;;;5043268;28;20164;-83
2022/09/18 01:18:02;;;;;;;77.53;25.90;;;12.20;99.90;;;;;;5043204;28;20188;-84
2022/09/18 01:20:50;;;;;;;75.63;30.58;;;12.30;99.90;;;;;;4960232;29;20214;-84
2022/09/18 01:23:24;;;;;;;75.60;25.30;;;12.30;99.90;;;;;;5054263;28;20199;-84
2022/09/18 01:25:56;;;;;;;75.28;29.10;;;12.20;99.90;;;;;;5041280;28;20538;-84
2022/09/18 01:28:32;;;;;;;76.50;30.35;;;12.20;99.90;;;;;;5059521;28;20187;-84
2022/09/18 01:31:05;;;;;;;75.28;28.83;;;12.20;99.90;;;;;;5041439;28;20160;-83
2022/09/18 01:33:57;;;;;;;77.78;28.95;;;12.30;99.90;;;;;;5059888;28;20149;-83
2022/09/18 01:36:25;;;;;;;74.82;27.75;;;12.20;99.90;;;;;;5059599;28;20169;-84
2022/09/18 01:38:59;;;;;;;80.60;32.53;;;12.20;99.90;;;;;;5041493;28;20188;-83
2022/09/18 01:41:27;;;;;;;79.15;35.72;;;12.20;99.90;;;;;;5041429;28;20182;-83
2022/09/18 01:44:06;;;;;;;77.25;37.60;;;12.20;99.90;;;;;;5059691;28;20172;-85
2022/09/18 01:46:33;;;;;;;79.00;31.80;;;12.30;99.90;;;;;;5040481;28;20223;-84
2022/09/18 01:49:15;;;;;;;84.57;39.35;;;12.20;99.90;;;;;;5059572;28;20291;-84
2022/09/18 01:51:53;;;;;;;77.03;35.55;;;12.20;99.90;;;;;;5059235;28;20180;-83
2022/09/18 01:54:24;;;;;;;76.78;35.45;;;12.30;99.90;;;;;;5059133;28;20148;-84
2022/09/18 01:56:54;;;;;;;78.43;35.97;;;12.20;99.90;;;;;;5058269;28;20551;-83
2022/09/18 01:59:35;;;;;;;78.80;36.47;;;12.20;99.90;;;;;;5059386;28;20240;-84
2022/09/18 02:02:05;;;;;;;76.47;38.17;;;12.20;99.90;;;;;;5058520;28;20178;-83
2022/09/18 02:04:37;;;;;;;79.00;33.90;;;12.20;99.90;;;;;;5058797;28;20213;-84
2022/09/18 02:07:13;;;;;;;78.93;36.00;;;12.20;99.90;;;;;;5040475;28;20245;-82
2022/09/18 02:09:39;;;;;;;78.82;41.20;;;12.20;99.90;;;;;;5058972;28;20164;-83
2022/09/18 02:12:09;;;;;;;81.15;43.60;;;12.20;99.90;;;;;;5040113;28;20665;-84
2022/09/18 02:14:40;;;;;;;83.15;35.67;;;12.20;99.90;;;;;;5040298;28;20176;-83
2022/09/18 02:17:12;;;;;;;79.15;38.78;;;12.20;99.90;;;;;;5040138;28;20192;-82
2022/09/18 02:19:43;;;;;;;80.63;40.70;;;12.20;99.90;;;;;;5058278;28;20145;-83
2022/09/18 02:22:11;;;;;;;83.22;38.72;;;12.20;99.90;;;;;;5057786;28;20180;-82
2022/09/18 02:24:42;;;;;;;80.07;38.25;;;12.20;99.90;;;;;;5040357;28;20543;-84
2022/09/18 02:27:10;;;;;;;77.10;34.72;;;12.30;99.90;;;;;;5059537;28;20216;-83
2022/09/18 02:29:37;;;;;;;79.15;39.10;;;12.20;99.90;;;;;;5058555;28;20230;-83
2022/09/18 02:32:03;;;;;;;75.93;30.27;;;12.20;99.90;;;;;;5044299;28;20202;-85
2022/09/18 02:34:30;;;;;;;75.77;30.50;;;12.20;99.90;;;;;;5062370;28;20415;-85
2022/09/18 02:37:11;;;;;;;76.40;34.33;;;12.20;99.90;;;;;;5044880;28;20400;-85
2022/09/18 02:39:58;;;;;;;84.60;43.25;;;12.10;99.90;;;;;;5062393;28;20512;-85
2022/09/18 02:42:29;;;;;;;74.72;24.30;;;12.20;99.90;;;;;;5062010;28;20170;-84
2022/09/18 02:45:21;;;;;;;71.93;23.58;;;12.20;99.90;;;;;;5045586;28;20164;-84
2022/09/18 02:48:12;;;;;;;73.63;25.00;;;12.20;99.90;;;;;;5063111;28;20234;-84
2022/09/18 02:50:57;;;;;;;74.18;24.88;;;12.20;99.90;;;;;;5062622;28;20149;-85
2022/09/18 02:53:57;;;;;;;72.35;22.20;;;12.20;99.90;;;;;;5062413;28;20153;-85
2022/09/18 02:56:29;;;;;;;75.80;27.58;;;12.20;99.90;;;;;;4961267;28;20628;-85
2022/09/18 02:59:06;;;;;;;75.05;26.55;;;12.20;99.90;;;;;;5061696;28;20195;-85
2022/09/18 03:01:32;;;;;;;74.65;25.52;;;12.20;99.90;;;;;;5062647;28;20156;-85
2022/09/18 03:04:04;;;;;;;72.55;20.90;;;12.20;99.90;;;;;;5060527;28;20577;-85
2022/09/18 03:06:29;;;;;;;75.07;22.63;;;12.20;99.90;;;;;;5043319;28;20176;-85
2022/09/18 03:08:55;;;;;;;73.60;27.10;;;12.20;99.90;;;;;;5060850;28;20181;-85
2022/09/18 03:11:21;;;;;;;78.60;32.83;;;12.20;99.90;;;;;;5060700;28;20271;-85
2022/09/18 03:13:46;;;;;;;73.17;27.37;;;12.20;99.90;;;;;;5061158;28;20165;-85
2022/09/18 03:16:12;;;;;;;75.30;25.50;;;12.20;99.90;;;;;;5043353;28;20169;-85
2022/09/18 03:18:38;;;;;;;76.03;28.30;;;12.20;99.90;;;;;;5059295;28;20177;-85
2022/09/18 03:21:04;;;;;;;74.47;28.33;;;12.20;99.90;;;;;;5061058;28;20160;-85
2022/09/18 03:23:29;;;;;;;75.60;33.17;;;12.20;99.90;;;;;;5061677;28;20163;-84
2022/09/18 03:25:55;;;;;;;76.73;33.20;;;12.20;99.90;;;;;;5060617;28;20399;-84
2022/09/18 03:28:21;;;;;;;75.50;31.83;;;12.10;99.90;;;;;;5043966;28;20195;-84
2022/09/18 03:30:48;;;;;;;75.40;33.43;;;12.10;99.90;;;;;;5060889;28;20160;-83
2022/09/18 03:33:15;;;;;;;78.22;30.38;;;12.10;99.90;;;;;;5043078;28;20202;-85
2022/09/18 03:35:42;;;;;;;73.80;27.45;;;12.20;99.90;;;;;;5061774;28;20228;-85
2022/09/18 03:38:07;;;;;;;71.43;21.65;;;12.20;99.90;;;;;;5043572;28;20184;-83
2022/09/18 03:40:33;;;;;;;73.87;22.00;;;12.20;99.90;;;;;;5061380;28;20164;-84
2022/09/18 03:42:59;;;;;;;74.90;21.20;;;12.10;99.90;;;;;;5061808;28;20171;-84
2022/09/18 03:45:25;;;;;;;74.60;16.83;;;12.20;99.90;;;;;;5061142;28;20173;-84
2022/09/18 03:47:50;;;;;;;69.40;15.77;;;12.10;99.90;;;;;;5060823;28;20576;-84
2022/09/18 03:50:16;;;;;;;70.87;18.60;;;12.10;99.90;;;;;;5061280;28;20396;-85
2022/09/18 03:52:42;;;;;;;71.50;16.80;;;12.10;99.90;;;;;;5061000;28;20199;-84
2022/09/18 03:55:08;;;;;;;71.17;19.87;;;12.10;99.90;;;;;;5043789;28;20164;-83
2022/09/18 03:57:34;;;;;;;74.05;14.98;;;12.10;99.90;;;;;;5061917;28;20192;-84
2022/09/18 03:59:59;;;;;;;79.20;18.00;;;12.10;99.90;;;;;;5061019;28;20160;-83
2022/09/18 04:02:25;;;;;;;69.27;13.90;;;12.00;99.90;;;;;;5043017;28;20202;-84
2022/09/18 04:04:52;;;;;;;71.73;15.53;;;12.10;99.90;;;;;;5061219;28;20191;-85
2022/09/18 04:07:18;;;;;;;73.82;16.33;;;12.10;99.90;;;;;;5061358;28;20237;-83
2022/09/18 04:09:44;;;;;;;67.32;13.00;;;12.10;99.90;;;;;;5060314;28;20168;-85
2022/09/18 04:12:13;;;;;;;68.67;13.40;;;12.10;99.90;;;;;;5042446;28;20279;-84
2022/09/18 04:14:38;;;;;;;67.22;12.32;;;12.00;99.90;;;;;;5041795;28;20184;-83
2022/09/18 04:17:04;;;;;;;76.80;23.50;;;12.00;99.90;;;;;;5060306;28;20180;-84
2022/09/18 04:19:30;;;;;;;72.30;13.77;;;12.10;99.90;;;;;;5060584;28;20161;-85
2022/09/18 04:21:55;;;;;;;67.67;13.63;;;12.10;99.90;;;;;;5062044;28;20243;-84
2022/09/18 04:24:21;;;;;;;69.37;17.10;;;12.10;99.90;;;;;;5061665;28;20172;-83
2022/09/18 04:26:48;;;;;;;70.53;18.23;;;12.10;99.90;;;;;;5061513;28;20658;-85
2022/09/18 04:29:13;;;;;;;71.68;17.40;;;12.10;99.90;;;;;;5061331;28;20157;-83
2022/09/18 04:31:39;;;;;;;71.00;23.50;;;12.00;99.90;;;;;;5062020;28;20191;-84
2022/09/18 04:34:05;;;;;;;72.00;17.33;;;12.00;99.90;;;;;;5062173;28;20520;-84
2022/09/18 04:36:31;;;;;;;69.80;15.10;;;12.10;99.90;;;;;;5062145;28;20658;-84
2022/09/18 04:38:59;;;;;;;72.83;15.40;;;12.10;99.90;;;;;;5043194;28;20434;-83
2022/09/18 04:41:25;;;;;;;71.53;17.42;;;12.10;99.90;;;;;;5061290;28;20700;-85
2022/09/18 04:43:50;;;;;;;68.40;13.50;;;12.20;99.90;;;;;;5060941;28;20199;-85
2022/09/18 04:46:16;;;;;;;70.30;18.47;;;12.10;99.90;;;;;;5045618;28;20194;-85
2022/09/18 04:48:46;;;;;;;71.77;19.37;;;12.20;99.90;;;;;;5045855;28;20219;-85
2022/09/18 04:51:12;;;;;;;73.10;24.00;;;12.10;99.90;;;;;;5046322;28;20164;-85
2022/09/18 04:53:39;;;;;;;72.47;22.20;;;12.10;99.90;;;;;;5064002;28;20654;-85
2022/09/18 04:56:05;;;;;;;76.78;30.85;;;12.10;99.90;;;;;;5062363;28;20405;-84
2022/09/18 04:58:30;;;;;;;74.23;32.70;;;12.10;99.90;;;;;;5058812;28;20240;-85
2022/09/18 05:00:56;;;;;;;77.83;41.70;;;12.10;99.90;;;;;;5059523;28;20403;-84
2022/09/18 05:03:22;;;;;;;79.33;40.57;;;12.10;99.90;;;;;;5061096;28;20667;-84
2022/09/18 05:05:49;;;;;;;81.83;48.93;;;12.10;99.90;;;;;;5061665;28;20176;-84
2022/09/18 05:08:14;;;;;;;82.78;53.03;;;12.10;99.90;;;;;;5061964;28;20258;-85
2022/09/18 05:10:41;;;;;;;89.20;61.43;;;12.10;99.90;;;;;;5043808;28;20168;-85
2022/09/18 05:13:07;;;;;;;86.97;58.15;;;12.10;99.90;;;;;;5062891;28;20190;-84
2022/09/18 05:15:33;;;;;;;85.30;54.50;;;12.10;99.90;;;;;;5063153;28;20188;-84
2022/09/18 05:18:01;;;;;;;84.70;57.97;;;12.10;99.90;;;;;;5064686;28;20768;-85
2022/09/18 05:20:28;;;;;;;92.05;74.03;;;12.10;99.90;;;;;;5045760;28;20472;-85
2022/09/18 05:22:54;;;;;;;91.35;76.00;;;12.10;99.90;;;;;;5063756;28;20164;-84
2022/09/18 05:25:20;;;;;;;83.70;52.88;;;12.10;99.90;;;;;;5064435;28;20181;-85
2022/09/18 05:27:56;;;;;;;82.10;54.10;;;12.10;99.90;;;;;;5065173;28;20199;-84
2022/09/18 05:30:23;;;;;;;94.82;78.85;;;12.20;99.90;;;;;;5063824;28;20392;-85
2022/09/18 05:33:00;;;;;;;84.03;57.15;;;12.20;99.90;;;;;;5064558;28;20199;-84
2022/09/18 05:35:28;;;;;;;85.60;60.15;;;12.10;99.90;;;;;;5064183;28;20195;-85
2022/09/18 05:37:54;;;;;;;87.15;62.67;;;12.20;99.90;;;;;;5046092;28;20195;-84
2022/09/18 05:40:23;;;;;;;89.22;70.00;;;12.20;99.90;;;;;;5063107;28;20169;-84
2022/09/18 05:42:51;;;;;;;87.07;67.32;;;12.20;99.90;;;;;;5046165;28;20165;-84
2022/09/18 05:45:21;;;;;;;83.38;57.58;;;12.10;99.90;;;;;;5063652;28;20161;-84
2022/09/18 05:47:57;;;;;;;87.80;58.47;;;12.10;99.90;;;;;;5045611;28;20208;-85
2022/09/18 05:50:25;;;;;;;85.68;62.05;;;12.20;99.90;;;;;;5046609;28;20196;-85
2022/09/18 05:53:06;;;;;;;87.00;59.63;;;12.30;99.90;;;;;;5063721;28;20184;-85
2022/09/18 05:55:32;;;;;;;88.78;63.95;;;12.20;99.90;;;;;;5063253;28;20148;-85
2022/09/18 05:57:59;;;;;;;80.97;49.35;;;12.20;99.90;;;;;;5063936;28;20267;-85
2022/09/18 06:00:26;;;;;;;85.68;53.90;;;12.30;99.90;;;;;;5045954;28;20165;-85
2022/09/18 06:03:08;;;;;;;81.53;50.60;;;12.30;99.90;;;;;;5045702;28;20187;-85
2022/09/18 06:05:36;;;;;;;80.55;46.45;;;12.30;99.90;;;;;;5063331;28;20230;-85
2022/09/18 06:08:03;;;;;;;82.65;45.30;;;12.30;99.90;;;;;;5063030;28;20203;-84
2022/09/18 06:10:31;;;;;;;81.25;44.10;;;12.20;99.90;;;;;;5044132;28;20183;-83
2022/09/18 06:13:05;;;;;;;77.85;35.28;;;12.30;99.90;;;;;;5058563;28;20279;-86
2022/09/18 06:15:31;;;;;;;79.18;43.05;;;12.30;99.90;;;;;;5041800;28;20153;-84
2022/09/18 06:17:57;;;;;;;80.07;43.47;;;12.30;99.90;;;;;;5060416;28;20613;-84
2022/09/18 06:20:23;;;;;;;74.70;29.83;;;12.30;99.90;;;;;;5060685;28;20181;-84
2022/09/18 06:22:48;;;;;;;74.20;31.73;;;12.20;99.90;;;;;;5060908;28;20167;-84
2022/09/18 06:25:18;;;;;;;77.13;31.70;;;12.30;99.90;;;;;;5060516;28;20631;-84
2022/09/18 06:27:44;;;;;;;73.97;30.38;;;12.30;99.90;;;;;;5060869;28;20227;-83
2022/09/18 06:30:10;;;;;;;74.47;32.40;;;12.30;99.90;;;;;;5042049;28;20222;-84
2022/09/18 06:32:36;;;;;;;80.25;29.63;;;12.40;99.90;;;;;;5059365;28;20600;-84
2022/09/18 06:35:02;;;;;;;75.97;22.90;;;12.40;99.90;;;;;;5059850;28;20160;-84
2022/09/18 06:37:27;;;;;;;72.97;26.43;;;12.40;99.90;;;;;;5059733;28;20219;-84
2022/09/18 06:39:53;;;;;;;71.17;23.93;;;12.40;99.90;;;;;;5042401;28;20161;-83
2022/09/18 06:42:19;;;;;;;75.80;19.27;;;12.40;99.90;;;;;;5059734;28;20173;-84
2022/09/18 06:44:44;;;;;;;70.70;21.40;;;12.40;99.90;;;;;;5060237;28;20188;-85
2022/09/18 06:47:10;;;;;;;75.70;19.90;;;12.40;99.90;;;;;;5060042;28;20695;-84
2022/09/18 06:49:36;;;;;;;72.80;18.80;;;12.40;99.90;;;;;;5059337;28;20170;-84
2022/09/18 06:52:01;;;;;;;71.50;20.87;;;12.40;99.90;;;;;;5042709;28;20299;-85
2022/09/18 06:54:27;;;;;;;73.20;18.63;;;12.40;99.90;;;;;;5044721;28;20164;-84
2022/09/18 06:56:53;;;;;;;71.70;16.90;;;12.40;99.90;;;;;;5063146;28;20168;-84
2022/09/18 06:59:18;;;;;;;75.73;17.90;;;12.50;99.90;;;;;;5063638;28;20175;-84
2022/09/18 07:01:47;;;;;;;69.40;17.10;;;12.50;99.90;;;;;;5064127;28;20165;-84
2022/09/18 07:04:13;;;;;;;73.17;20.77;;;12.50;99.90;;;;;;5045928;28;20172;-85
2022/09/18 07:06:39;;;;;;;72.10;19.57;;;12.60;99.90;;;;;;5062794;28;20418;-83
2022/09/18 07:09:05;;;;;;;72.00;17.45;;;12.60;99.90;;;;;;5044809;28;20246;-84
2022/09/18 07:11:30;;;;;;;70.70;21.27;;;12.70;99.90;;;;;;5044418;28;20188;-84
2022/09/18 07:13:56;;;;;;;72.37;25.10;;;12.70;99.90;;;;;;5060462;28;20206;-85
2022/09/18 07:16:21;;;;;;;71.40;20.60;;;12.70;99.90;;;;;;5042223;28;20260;-85
2022/09/18 07:18:47;;;;;;;73.60;16.53;;;12.60;99.90;;;;;;5059939;28;20202;-84
2022/09/18 07:21:13;;;;;;;78.18;21.70;;;12.60;99.90;;;;;;5041575;28;20578;-83
2022/09/18 07:23:39;;;;;;;73.53;19.23;;;12.60;99.90;;;;;;5061366;28;20161;-83
2022/09/18 07:26:04;;;;;;;71.97;20.20;;;12.60;99.90;;;;;;5060888;28;20169;-85
2022/09/18 07:28:30;;;;;;;84.30;23.20;;;12.60;99.90;;;;;;5043907;28;20188;-84
2022/09/18 07:31:02;;;;;;;77.07;26.03;;;12.70;99.90;;;;;;5044329;28;20168;-84
2022/09/18 07:33:27;;;;;;;74.43;28.60;;;12.80;99.90;;;;;;5062890;28;20145;-85
2022/09/18 07:35:58;;;;;;;72.30;19.30;;;12.80;99.90;;;;;;5066190;28;20179;-85
2022/09/18 07:38:23;;;;;;;74.22;23.52;;;12.90;99.90;;;;;;5066303;28;20222;-84
2022/09/18 07:40:49;;;;;;;70.70;20.60;;;12.90;99.90;;;;;;5063950;28;20161;-85
2022/09/18 07:43:15;;;;;;;79.13;27.20;;;12.90;99.90;;;;;;5062860;28;20298;-84
2022/09/18 07:45:42;;;;;;;71.70;21.07;;;12.90;99.90;;;;;;5062971;28;20200;-85
2022/09/18 07:48:08;;;;;;;75.47;24.77;;;12.90;99.90;;;;;;5064144;28;20717;-85
2022/09/18 07:50:34;;;;;;;73.40;23.10;;;13.00;99.90;;;;;;5064891;28;20406;-85
2022/09/18 07:53:02;;;;;;;72.77;22.03;;;13.00;99.90;;;;;;5064584;28;20192;-86
2022/09/18 07:55:28;;;;;;;71.23;20.70;;;13.00;99.90;;;;;;5064471;28;20175;-85
2022/09/18 07:57:59;;;;;;;78.43;21.97;;;13.00;99.90;;;;;;5047373;28;20463;-85
2022/09/18 08:00:26;;;;;;;73.00;27.03;;;13.10;99.90;;;;;;5064632;28;20739;-84
2022/09/18 08:03:08;;;;;;;72.18;21.80;;;13.20;99.90;;;;;;5064255;28;20859;-85
2022/09/18 08:05:34;;;;;;;72.65;21.83;;;13.30;99.90;;;;;;5045395;28;20183;-85
2022/09/18 08:08:08;;;;;;;72.80;20.07;;;13.30;99.90;;;;;;5063868;28;20215;-85
2022/09/18 08:10:35;;;;;;;74.10;23.30;;;13.30;99.90;;;;;;5063783;28;20906;-85
2022/09/18 08:13:02;;;;;;;71.93;23.97;;;13.40;99.90;;;;;;5046370;28;20454;-85
2022/09/18 08:15:29;;;;;;;75.72;30.50;;;13.50;99.90;;;;;;5063571;28;20399;-86
2022/09/18 08:17:54;;;;;;;73.87;20.00;;;13.50;99.90;;;;;;5063091;28;20188;-85
2022/09/18 08:20:20;;;;;;;65.53;8.90;;;13.50;99.90;;;;;;5046679;28;20404;-85
2022/09/18 08:22:46;;;;;;;69.90;10.80;;;13.50;99.90;;;;;;5045954;28;20161;-85
2022/09/18 08:25:12;;;;;;;68.03;9.80;;;13.60;99.90;;;;;;5064384;28;20179;-85
2022/09/18 08:27:38;;;;;;;66.97;8.57;;;13.60;99.90;;;;;;5062984;28;20502;-85
2022/09/18 08:30:05;;;;;;;66.00;8.82;;;13.70;99.90;;;;;;5063668;28;20928;-85
2022/09/18 08:32:32;;;;;;;68.77;10.03;;;13.80;99.90;;;;;;5060559;28;20196;-83
2022/09/18 08:35:01;;;;;;;68.80;12.77;;;13.90;99.90;;;;;;5059946;28;20399;-83
2022/09/18 08:37:28;;;;;;;68.87;17.07;;;14.00;99.90;;;;;;5042969;28;20906;-82
2022/09/18 08:39:53;;;;;;;68.57;15.60;;;14.00;99.90;;;;;;5044077;28;20886;-84
2022/09/18 08:42:32;;;;;;;69.40;15.53;;;14.10;99.90;;;;;;5061259;28;20434;-84
2022/09/18 08:45:16;;;;;;;73.47;26.37;;;14.30;99.90;;;;;;5061967;28;20191;-85
2022/09/18 08:47:53;;;;;;;73.50;24.97;;;14.40;99.90;;;;;;5061347;28;20497;-84
2022/09/18 08:50:28;;;;;;;75.13;29.70;;;14.40;99.90;;;;;;5059498;28;20391;-83
2022/09/18 08:53:22;;;;;;;73.87;23.00;;;14.40;99.90;;;;;;5058907;28;20557;-83
2022/09/18 08:55:50;;;;;;;73.47;23.43;;;14.40;99.90;;;;;;5050242;28;20415;-83
2022/09/18 08:58:26;;;;;;;76.83;25.83;;;14.40;99.90;;;;;;5059226;28;20476;-82
2022/09/18 09:00:58;;;;;;;71.57;21.53;;;14.30;99.90;;;;;;5059564;28;20384;-84
2022/09/18 09:03:33;;;;;;;72.00;18.80;;;14.20;99.90;;;;;;5061293;28;20391;-84
2022/09/18 09:06:00;;;;;;;73.30;23.60;;;14.20;99.90;;;;;;5064195;28;20444;-85
2022/09/18 09:08:52;;;;;;;74.87;32.87;;;14.40;99.90;;;;;;5045176;28;20438;-85
2022/09/18 09:11:39;;;;;;;71.27;19.60;;;14.40;99.90;;;;;;5018583;28;20415;-85
2022/09/18 09:14:34;;;;;;;73.77;17.10;;;14.40;99.90;;;;;;5045736;28;20407;-85
2022/09/18 09:17:18;;;;;;;69.80;16.13;;;14.60;99.90;;;;;;5051737;28;20941;-85
2022/09/18 09:20:10;;;;;;;73.07;27.03;;;14.70;99.90;;;;;;5039259;28;20891;-82
2022/09/18 09:23:03;;;;;;;71.70;24.90;;;14.60;99.90;;;;;;5036681;28;20403;-82
2022/09/18 09:26:04;;;;;;;71.60;23.47;;;14.40;99.90;;;;;;5011964;28;20466;-85
2022/09/18 09:28:36;;;;;;;75.93;15.90;;;14.20;99.90;;;;;;5039062;28;20442;-84
2022/09/18 09:31:08;;;;;;;70.37;19.03;;;14.00;99.90;;;;;;5056733;28;20797;-85
2022/09/18 09:33:57;;;;;;;74.10;26.47;;;13.90;99.90;;;;;;5055877;28;20391;-85
2022/09/18 09:36:27;;;;;;;71.90;26.10;;;13.80;99.90;;;;;;5036827;28;20906;-84
2022/09/18 09:39:05;;;;;;;70.53;17.90;;;13.80;99.90;;;;;;5037116;28;20419;-84
2022/09/18 09:41:37;;;;;;;68.77;11.87;;;13.80;99.90;;;;;;5037866;28;20407;-84
2022/09/18 09:44:28;;;;;;;76.63;16.80;;;13.90;99.90;;;;;;5038631;28;20391;-84
2022/09/18 09:46:59;;;;;;;75.17;27.40;;;13.90;99.90;;;;;;5056561;28;20841;-85
2022/09/18 09:49:30;;;;;;;72.27;27.60;;;13.80;99.90;;;;;;5056930;28;20862;-83
2022/09/18 09:52:14;;;;;;;77.97;37.97;;;13.70;99.90;;;;;;5056943;28;20446;-84
2022/09/18 09:54:41;;;;;;;70.10;18.20;;;13.70;99.90;;;;;;5057014;28;20724;-83
2022/09/18 09:57:35;;;;;;;68.40;12.47;;;13.70;99.90;;;;;;5056758;28;20442;-83
2022/09/18 10:00:13;;;;;;;67.27;11.33;;;13.90;99.90;;;;;;5019649;28;20437;-84
2022/09/18 10:02:56;;;;;;;70.27;19.50;;;14.10;99.90;;;;;;5039102;28;20406;-83
2022/09/18 10:05:34;;;;;;;74.50;23.70;;;14.30;99.90;;;;;;5055868;28;20751;-84
2022/09/18 10:08:16;;;;;;;71.30;23.67;;;14.30;99.90;;;;;;5057037;28;20423;-83
2022/09/18 10:10:59;;;;;;;77.00;21.90;;;14.50;99.90;;;;;;5039726;28;20806;-85
2022/09/18 10:13:32;;;;;;;73.00;26.73;;;14.40;99.90;;;;;;5059167;28;20798;-85
2022/09/18 10:16:08;;;;;;;69.50;18.90;;;14.50;99.90;;;;;;5058405;28;20403;-85
2022/09/18 10:18:38;;;;;;;70.23;18.70;;;14.40;99.90;;;;;;5058561;28;20956;-84
2022/09/18 10:21:15;;;;;;;74.33;25.10;;;14.30;99.90;;;;;;5058904;28;20425;-85
2022/09/18 10:23:43;;;;;;;75.80;34.10;;;14.20;99.90;;;;;;5058358;28;20763;-85
2022/09/18 10:26:22;;;;;;;71.00;22.37;;;14.10;99.90;;;;;;5056303;28;20960;-85
2022/09/18 10:28:48;;;;;;;73.80;29.77;;;14.10;99.90;;;;;;5040960;28;20438;-83
2022/09/18 10:31:16;;;;;;;67.53;13.83;;;14.00;99.90;;;;;;5061623;28;20481;-84
2022/09/18 10:33:48;;;;;;;72.67;22.63;;;13.90;99.90;;;;;;5062001;28;20244;-84
2022/09/18 10:36:22;;;;;;;71.27;20.73;;;13.80;99.90;;;;;;5061720;28;20403;-85
2022/09/18 10:38:49;;;;;;;80.00;32.27;;;13.70;99.90;;;;;;5044024;28;20484;-86
2022/09/18 10:41:27;;;;;;;76.17;31.73;;;13.60;99.90;;;;;;5043415;28;20406;-83
2022/09/18 10:44:13;;;;;;;72.60;26.87;;;13.50;99.90;;;;;;5042561;28;20438;-82
2022/09/18 10:47:09;;;;;;;71.13;17.20;;;13.50;99.90;;;;;;5059418;28;20384;-85
2022/09/18 10:49:42;;;;;;;74.10;19.03;;;13.50;99.90;;;;;;5139285;22;20479;-84
2022/09/18 10:52:28;;;;;;;67.97;12.97;;;13.60;99.90;;;;;;5044970;28;20442;-83
2022/09/18 10:55:00;;;;;;;66.93;9.80;;;13.60;99.90;;;;;;5045157;28;20410;-83
2022/09/18 10:57:47;;;;;;;68.57;11.80;;;13.70;99.90;;;;;;5063142;28;20423;-83
2022/09/18 11:00:15;;;;;;;71.27;21.17;;;13.80;99.90;;;;;;5064479;28;20379;-84
2022/09/18 11:02:48;;;;;;;77.10;38.20;;;13.80;99.90;;;;;;5063004;28;20410;-85
2022/09/18 11:05:19;;;;;;;74.40;32.47;;;13.70;99.90;;;;;;5062884;28;20782;-84
2022/09/18 11:07:50;;;;;;;77.00;35.07;;;13.70;99.90;;;;;;5044787;28;20454;-84
2022/09/18 11:10:22;;;;;;;76.37;29.13;;;13.70;99.90;;;;;;5061805;28;20472;-84
2022/09/18 11:12:51;;;;;;;89.87;62.07;;;13.60;99.90;;;;;;5062669;28;20469;-84
2022/09/18 11:15:19;;;;;;;79.00;38.63;;;13.60;99.90;;;;;;5062311;28;20466;-83
2022/09/18 11:17:52;;;;;;;77.73;32.97;;;13.50;99.90;;;;;;5062350;28;20423;-85
2022/09/18 11:20:25;;;;;;;73.15;32.38;;;13.40;99.90;;;;;;5062077;28;20383;-85
2022/09/18 11:22:52;;;;;;;70.97;21.15;;;13.40;99.90;;;;;;5060634;28;20266;-85
2022/09/18 11:25:26;;;;;;;68.47;15.07;;;13.30;99.90;;;;;;5043420;28;20191;-83
2022/09/18 11:27:59;;;;;;;68.90;9.30;;;13.20;99.90;;;;;;5043456;28;20857;-84
2022/09/18 11:30:37;;;;;;;70.93;9.93;;;13.20;99.90;;;;;;5061461;28;20658;-84
2022/09/18 11:33:23;;;;;;;67.20;10.70;;;13.20;99.90;;;;;;5043806;28;20476;-84
2022/09/18 11:35:56;;;;;;;66.70;9.40;;;13.20;99.90;;;;;;5060982;28;20387;-83
2022/09/18 11:38:22;;;;;;;72.15;11.82;;;13.30;99.90;;;;;;5043552;28;20423;-84
2022/09/18 11:40:53;;;;;;;67.60;9.17;;;13.40;99.90;;;;;;5060958;28;20243;-84
2022/09/18 11:43:25;;;;;;;73.28;13.48;;;13.30;99.90;;;;;;5061768;28;20457;-83
2022/09/18 11:46:02;;;;;;;68.57;12.40;;;13.20;99.90;;;;;;5061386;28;20169;-84
2022/09/18 11:48:38;;;;;;;72.17;15.10;;;13.20;99.90;;;;;;5044488;28;20508;-85
2022/09/18 11:51:34;;;;;;;73.83;18.53;;;13.20;99.90;;;;;;5062973;28;20734;-85
2022/09/18 11:54:07;;;;;;;70.60;20.93;;;13.20;99.90;;;;;;5024511;28;20812;-83
2022/09/18 11:56:44;;;;;;;75.00;27.53;;;13.20;99.90;;;;;;5061099;28;20378;-84
2022/09/18 11:59:24;;;;;;;73.13;27.67;;;13.20;99.90;;;;;;5061089;28;20414;-83
2022/09/18 12:02:08;;;;;;;76.63;30.77;;;13.20;99.90;;;;;;5061568;28;20415;-84
2022/09/18 12:04:51;;;;;;;74.77;31.13;;;13.20;99.90;;;;;;5042914;28;20918;-83
2022/09/18 12:07:43;;;;;;;78.43;39.20;;;13.30;99.90;;;;;;5060777;28;20965;-83
2022/09/18 12:10:38;;;;;;;75.37;33.30;;;13.40;99.90;;;;;;5060408;28;20397;-83
2022/09/18 12:13:22;;;;;;;74.97;29.90;;;13.60;99.90;;;;;;5060801;28;21023;-83
2022/09/18 12:16:09;;;;;;;71.10;20.87;;;13.70;99.90;;;;;;5042329;28;20403;-83
2022/09/18 12:18:48;;;;;;;69.40;13.90;;;13.80;99.90;;;;;;5061066;28;20422;-83
2022/09/18 12:21:20;;;;;;;70.90;15.40;;;13.90;99.90;;;;;;5061079;28;20440;-84
2022/09/18 12:23:46;;;;;;;69.97;15.57;;;14.00;99.90;;;;;;5061512;28;20380;-83
2022/09/18 12:26:18;;;;;;;70.63;15.60;;;14.20;99.90;;;;;;5043656;28;20755;-84
2022/09/18 12:29:21;;;;;;;72.27;15.50;;;14.40;99.90;;;;;;5061715;28;20184;-83
2022/09/18 12:32:01;;;;;;;68.97;13.20;;;14.40;99.90;;;;;;5060622;28;20434;-83
2022/09/18 12:35:00;;;;;;;74.80;25.97;;;14.60;99.90;;;;;;5044358;28;20414;-84
2022/09/18 12:37:45;;;;;;;72.53;24.13;;;14.60;99.90;;;;;;5062679;28;20422;-85
2022/09/18 12:40:35;;;;;;;73.70;30.40;;;14.70;99.90;;;;;;5062390;28;20912;-85
2022/09/18 12:43:36;;;;;;;76.80;24.57;;;14.70;99.90;;;;;;5062496;28;21021;-84
2022/09/18 12:46:20;;;;;;;73.90;28.83;;;14.90;99.90;;;;;;5056237;28;20415;-85
2022/09/18 12:49:11;;;;;;;74.13;24.43;;;14.90;99.90;;;;;;5042889;28;20442;-84
2022/09/18 12:51:57;;;;;;;70.90;21.73;;;15.00;99.90;;;;;;5059905;28;20427;-85
2022/09/18 12:54:40;;;;;;;72.27;22.47;;;15.10;99.90;;;;;;5043603;28;20414;-83